Time;durP1;ratioP1;P1;durP2;ratioP2;P2;SDS_P1;SDS_P2;PMS_P1;PMS_P2;Temp;Humidity;BMP_temperature;BMP_pressure;BME280_temperature;BME280_humidity;BME280_pressure;Samples;Min_cycle;Max_cycle;Signal;HPM_P1;HPM_P2
2021/03/28 00:02:10;;;;;;;12.15;3.55;;;6.70;99.90;;;6.46;84.89;102478.22;4153001;28;20030;-74
2021/03/28 00:04:14;;;;;;;11.90;3.83;;;6.70;99.90;;;6.44;85.26;102465.22;4166407;28;20017;-74
2021/03/28 00:06:44;;;;;;;16.17;6.13;;;6.70;99.90;;;6.40;85.36;102461.06;4168247;28;20036;-74
2021/03/28 00:09:27;;;;;;;13.27;7.53;;;6.70;99.90;;;6.58;84.02;102470.50;4168434;28;20089;-74
2021/03/28 00:11:28;;;;;;;11.27;6.32;;;6.60;99.90;;;6.60;84.28;102459.94;4169342;28;20030;-74
2021/03/28 00:13:30;;;;;;;10.43;4.00;;;6.70;99.90;;;6.46;84.69;102467.72;4151666;28;20034;-74
2021/03/28 00:15:54;;;;;;;10.65;3.83;;;6.70;99.90;;;6.39;85.23;102469.84;4158859;28;20041;-74
2021/03/28 00:18:24;;;;;;;10.95;6.10;;;6.60;99.90;;;6.53;85.20;102483.03;4168048;28;20091;-74
2021/03/28 00:20:31;;;;;;;13.65;7.90;;;6.60;99.90;;;6.64;83.00;102474.53;4167852;28;20056;-74
2021/03/28 00:22:41;;;;;;;16.38;7.25;;;6.60;99.90;;;6.48;83.14;102485.06;4168019;28;20108;-74
2021/03/28 00:25:15;;;;;;;15.60;7.10;;;6.60;99.90;;;6.33;82.65;102469.38;4167901;28;20033;-74
2021/03/28 00:27:25;;;;;;;15.63;7.40;;;6.50;99.90;;;6.21;83.59;102477.94;4168113;28;20029;-74
2021/03/28 00:29:27;;;;;;;15.32;7.35;;;6.50;99.90;;;6.21;85.09;102476.16;4167753;28;20161;-74
2021/03/28 00:31:33;;;;;;;15.30;6.43;;;6.40;99.90;;;6.20;85.15;102471.84;4168042;28;20021;-73
2021/03/28 00:33:36;;;;;;;12.43;5.25;;;6.40;99.90;;;6.09;85.35;102482.91;4167845;28;20500;-73
2021/03/28 00:35:53;;;;;;;7.38;4.03;;;6.40;99.90;;;6.07;84.91;102478.69;4167631;28;20095;-73
2021/03/28 00:38:28;;;;;;;7.63;3.70;;;6.30;99.90;;;5.99;84.03;102478.25;4169072;28;20502;-73
2021/03/28 00:40:31;;;;;;;11.95;4.03;;;6.20;99.90;;;5.72;85.73;102470.09;4163310;28;20505;-73
2021/03/28 00:42:52;;;;;;;10.77;5.40;;;6.10;99.90;;;5.85;84.70;102489.50;4167633;28;20068;-73
2021/03/28 00:45:00;;;;;;;13.10;5.30;;;6.10;99.90;;;5.88;84.46;102488.50;4167805;28;20045;-73
2021/03/28 00:47:05;;;;;;;9.95;4.90;;;6.00;99.90;;;5.88;84.75;102489.34;4167533;28;20041;-73
2021/03/28 00:49:35;;;;;;;9.52;4.50;;;6.00;99.90;;;5.85;84.88;102491.25;4167227;28;20594;-73
2021/03/28 00:51:46;;;;;;;14.57;4.43;;;6.10;99.90;;;5.80;84.78;102483.63;4164503;28;20064;-73
2021/03/28 00:53:59;;;;;;;10.60;5.40;;;6.00;99.90;;;5.70;85.46;102479.81;4167301;28;20041;-73
2021/03/28 00:56:08;;;;;;;7.45;4.65;;;5.90;99.90;;;5.49;85.53;102439.94;4168855;28;20500;-73
2021/03/28 00:58:25;;;;;;;10.10;4.82;;;5.90;99.90;;;5.65;85.75;102455.63;4167287;28;20143;-73
2021/03/28 01:00:38;;;;;;;11.63;5.25;;;5.90;99.90;;;5.62;86.25;102444.47;4167480;28;20033;-73
2021/03/28 01:03:03;;;;;;;9.85;4.55;;;5.80;99.90;;;5.60;87.03;102457.66;4168620;28;20041;-73
2021/03/28 01:05:21;;;;;;;11.82;5.63;;;5.80;99.90;;;5.61;87.41;102450.66;4154427;28;20104;-73
2021/03/28 01:07:36;;;;;;;12.45;4.93;;;5.80;99.90;;;5.66;87.37;102443.41;4157603;28;20484;-73
2021/03/28 01:10:34;;;;;;;10.13;4.97;;;5.80;99.90;;;5.66;88.05;102443.41;4167170;28;20063;-73
2021/03/28 01:13:33;;;;;;;8.60;5.00;;;5.80;99.90;;;5.86;86.58;102445.81;4167633;28;20026;-73
2021/03/28 01:16:15;;;;;;;10.98;5.25;;;5.90;99.90;;;5.69;88.09;102433.59;4168677;28;20021;-73
2021/03/28 01:19:02;;;;;;;14.13;6.60;;;6.00;99.90;;;5.79;87.69;102434.81;4168451;28;20041;-73
2021/03/28 01:21:39;;;;;;;16.67;7.18;;;6.00;99.90;;;5.71;88.07;102426.50;4168452;28;20481;-73
2021/03/28 01:23:46;;;;;;;14.05;6.53;;;5.90;99.90;;;5.57;88.15;102416.81;4149074;28;20229;-73
2021/03/28 01:26:23;;;;;;;15.95;6.47;;;5.90;99.90;;;5.72;87.91;102419.50;4167202;28;20108;-74
2021/03/28 01:28:50;;;;;;;13.93;6.60;;;5.80;99.90;;;5.72;87.26;102422.97;4168436;28;20053;-74
2021/03/28 01:30:58;;;;;;;15.75;6.40;;;5.90;99.90;;;5.71;87.15;102409.94;4168351;28;20092;-74
2021/03/28 01:33:11;;;;;;;17.42;7.72;;;5.90;99.90;;;5.54;87.30;102403.88;4168211;28;20031;-74
2021/03/28 01:35:13;;;;;;;15.30;6.90;;;5.80;99.90;;;5.66;87.15;102414.59;4166883;28;20080;-74
2021/03/28 01:37:43;;;;;;;13.38;6.20;;;5.80;99.90;;;5.58;87.47;102407.19;4168454;28;20033;-74
2021/03/28 01:40:16;;;;;;;11.55;7.70;;;5.90;99.90;;;5.55;87.21;102410.78;4153101;28;20037;-74
2021/03/28 01:42:28;;;;;;;11.43;7.03;;;5.80;99.90;;;5.58;86.78;102417.66;4177846;28;20060;-74
2021/03/28 01:44:47;;;;;;;14.70;6.68;;;5.70;99.90;;;5.54;86.55;102408.25;4167211;28;20032;-74
2021/03/28 01:47:32;;;;;;;15.40;7.30;;;5.70;99.90;;;5.51;86.14;102414.50;4168274;28;20116;-74
2021/03/28 01:50:03;;;;;;;11.65;6.00;;;5.70;99.90;;;5.36;86.69;102419.72;4145264;28;20076;-74
2021/03/28 01:52:48;;;;;;;11.30;6.22;;;5.60;99.90;;;5.41;86.75;102418.53;4168264;28;20033;-73
2021/03/28 01:55:42;;;;;;;14.35;7.30;;;5.60;99.90;;;5.32;87.12;102420.78;4160226;28;20504;-73
2021/03/28 01:58:12;;;;;;;15.15;6.97;;;5.60;99.90;;;5.32;86.72;102429.50;4168504;28;20045;-73
2021/03/28 02:01:03;;;;;;;14.88;6.40;;;5.50;99.90;;;5.35;85.94;102431.94;4184602;28;20021;-73
2021/03/28 02:03:26;;;;;;;13.15;6.55;;;5.50;99.90;;;5.30;85.89;102439.22;4184617;28;20435;-73
2021/03/28 02:05:33;;;;;;;12.38;6.30;;;5.50;99.90;;;5.30;85.82;102444.44;4151364;28;20046;-73
2021/03/28 02:08:08;;;;;;;13.68;7.07;;;5.50;99.90;;;5.01;86.47;102439.88;4171526;28;20030;-73
2021/03/28 02:11:02;;;;;;;10.73;6.57;;;5.40;99.90;;;4.94;86.52;102438.50;4171048;28;20037;-73
2021/03/28 02:13:41;;;;;;;16.88;8.07;;;5.30;99.90;;;4.76;86.70;102424.59;4171149;28;20025;-73
2021/03/28 02:15:51;;;;;;;14.20;6.30;;;5.20;99.90;;;4.87;87.79;102437.09;4164130;28;20049;-73
2021/03/28 02:18:23;;;;;;;11.75;6.80;;;5.10;99.90;;;4.86;88.58;102427.59;4187705;28;20025;-73
2021/03/28 02:21:37;;;;;;;15.10;7.07;;;5.10;99.90;;;4.92;88.51;102435.97;4187594;28;20021;-73
2021/03/28 02:23:48;;;;;;;11.25;6.82;;;5.10;99.90;;;4.80;89.32;102436.59;4127569;28;20064;-73
2021/03/28 02:26:25;;;;;;;11.43;6.88;;;5.10;99.90;;;4.94;89.44;102436.72;4187561;28;20430;-73
2021/03/28 02:28:51;;;;;;;18.23;7.13;;;5.10;99.90;;;5.06;88.12;102435.25;4176634;28;20088;-73
2021/03/28 02:31:08;;;;;;;13.23;6.50;;;5.20;99.90;;;4.99;88.53;102421.63;4187450;28;20032;-73
2021/03/28 02:33:44;;;;;;;12.23;6.03;;;5.20;99.90;;;5.09;88.72;102416.78;4187528;28;20543;-74
2021/03/28 02:36:21;;;;;;;15.40;5.20;;;5.20;99.90;;;5.06;89.06;102416.94;4187195;28;20029;-74
2021/03/28 02:38:33;;;;;;;11.57;5.30;;;5.30;99.90;;;5.07;89.59;102418.63;4170486;28;20084;-74
2021/03/28 02:40:34;;;;;;;12.43;6.70;;;5.30;99.90;;;5.02;89.78;102421.47;4187212;28;20021;-74
2021/03/28 02:43:07;;;;;;;10.38;6.90;;;5.20;99.90;;;5.01;90.63;102418.97;4187149;28;20040;-74
2021/03/28 02:45:31;;;;;;;16.02;6.18;;;5.30;99.90;;;4.96;91.14;102421.78;4154518;28;20029;-73
2021/03/28 02:48:03;;;;;;;12.65;6.72;;;5.30;99.90;;;5.02;90.98;102420.63;4185081;28;20044;-74
2021/03/28 02:50:48;;;;;;;19.00;6.47;;;5.30;99.90;;;5.05;91.05;102420.47;4172839;28;20041;-74
2021/03/28 02:53:32;;;;;;;12.27;5.60;;;5.30;99.90;;;5.05;91.66;102436.16;4178926;28;20128;-74
2021/03/28 02:56:03;;;;;;;13.43;6.50;;;5.30;99.90;;;5.17;90.26;102440.75;4171230;28;20034;-74
2021/03/28 02:58:23;;;;;;;10.57;6.22;;;5.30;99.90;;;5.14;89.21;102430.47;4170723;28;20076;-74
2021/03/28 03:01:13;;;;;;;12.35;6.22;;;5.30;99.90;;;5.18;89.53;102442.47;4186963;28;20119;-74
2021/03/28 03:03:52;;;;;;;15.00;6.50;;;5.30;99.90;;;5.16;89.30;102456.56;4172265;28;20094;-73
2021/03/28 03:06:11;;;;;;;8.25;6.22;;;5.30;99.90;;;5.08;90.27;102450.88;4176962;28;20033;-74
2021/03/28 03:08:58;;;;;;;11.35;6.20;;;5.30;99.90;;;5.00;90.13;102446.03;4186991;28;20037;-74
2021/03/28 03:11:23;;;;;;;10.05;6.22;;;5.30;99.90;;;5.13;88.61;102452.31;4186934;28;20033;-74
2021/03/28 03:14:01;;;;;;;15.45;6.50;;;5.20;99.90;;;4.99;88.76;102455.63;4186864;28;20096;-73
2021/03/28 03:16:44;;;;;;;9.90;6.07;;;5.20;99.90;;;4.91;89.38;102455.19;4186909;28;20120;-73
2021/03/28 03:19:32;;;;;;;12.13;5.85;;;5.20;99.90;;;4.91;88.97;102459.56;4185977;28;20029;-73
2021/03/28 03:22:20;;;;;;;8.82;5.97;;;5.10;99.90;;;4.75;89.20;102463.91;4186611;28;20479;-73
2021/03/28 03:24:58;;;;;;;9.25;5.13;;;5.10;99.90;;;4.84;87.84;102466.88;4171585;28;20025;-73
2021/03/28 03:27:44;;;;;;;10.40;6.18;;;5.10;99.90;;;4.83;87.21;102466.97;4186800;28;20083;-73
2021/03/28 03:29:52;;;;;;;12.45;5.40;;;5.10;99.90;;;4.68;87.64;102467.72;4186029;28;20048;-73
2021/03/28 03:32:20;;;;;;;11.85;6.00;;;5.00;99.90;;;4.44;88.50;102465.41;4186667;28;20036;-73
2021/03/28 03:34:57;;;;;;;12.32;6.90;;;4.90;99.90;;;4.43;88.48;102448.03;4186264;28;20035;-73
2021/03/28 03:37:34;;;;;;;12.73;7.30;;;4.80;99.90;;;4.47;89.06;102457.41;4171621;28;20025;-74
2021/03/28 03:40:24;;;;;;;12.02;6.07;;;4.80;99.90;;;4.67;88.31;102452.94;4186457;28;20411;-74
2021/03/28 03:42:46;;;;;;;13.15;7.25;;;4.80;99.90;;;4.73;87.52;102455.25;4186513;28;20033;-74
2021/03/28 03:45:33;;;;;;;12.93;5.85;;;4.90;99.90;;;4.57;87.64;102449.13;4186481;28;20025;-74
2021/03/28 03:47:40;;;;;;;11.27;6.30;;;4.80;99.90;;;4.47;87.51;102438.28;4186213;28;20029;-74
2021/03/28 03:50:08;;;;;;;14.95;6.53;;;4.80;99.90;;;4.50;88.17;102442.50;4168696;28;20108;-74
2021/03/28 03:52:47;;;;;;;10.90;5.43;;;4.80;99.90;;;4.45;88.40;102454.00;4186187;28;20025;-74
2021/03/28 03:55:28;;;;;;;10.98;5.82;;;4.80;99.90;;;4.51;88.47;102462.50;4186510;28;20079;-74
2021/03/28 03:57:54;;;;;;;10.90;5.75;;;4.70;99.90;;;4.51;88.05;102459.88;4186122;28;20053;-74
2021/03/28 04:00:14;;;;;;;12.43;6.53;;;4.70;99.90;;;4.49;87.12;102462.56;4174114;28;20025;-74
2021/03/28 04:02:38;;;;;;;12.05;5.75;;;4.70;99.90;;;4.52;86.64;102477.22;4153478;28;20038;-74
2021/03/28 04:04:50;;;;;;;9.52;5.72;;;4.70;99.90;;;4.45;85.98;102476.69;4170675;28;20044;-74
2021/03/28 04:07:14;;;;;;;12.45;6.65;;;4.70;99.90;;;4.15;86.64;102475.56;4185875;28;20515;-74
2021/03/28 04:09:52;;;;;;;11.77;5.30;;;4.60;99.90;;;4.22;86.99;102484.78;4185987;28;20439;-74
2021/03/28 04:12:17;;;;;;;10.60;5.40;;;4.50;99.90;;;4.23;87.57;102474.28;4185787;28;20097;-74
2021/03/28 04:14:58;;;;;;;12.13;5.28;;;4.50;99.90;;;4.06;86.92;102474.19;4185955;28;20180;-74
2021/03/28 04:17:33;;;;;;;7.85;5.28;;;4.40;99.90;;;3.99;88.23;102467.59;4185815;28;20507;-74
2021/03/28 04:20:06;;;;;;;13.05;5.90;;;4.40;99.90;;;4.07;87.94;102480.28;4185460;28;20079;-74
2021/03/28 04:22:39;;;;;;;8.77;5.70;;;4.40;99.90;;;3.99;88.36;102478.03;4185449;28;20116;-73
2021/03/28 04:25:14;;;;;;;11.50;6.43;;;4.30;99.90;;;3.94;87.66;102473.94;4185592;28;20064;-73
2021/03/28 04:27:33;;;;;;;12.27;7.00;;;4.30;99.90;;;3.95;87.37;102473.00;4185736;28;20055;-73
2021/03/28 04:29:36;;;;;;;13.13;5.45;;;4.20;99.90;;;3.97;87.04;102476.41;4185070;28;20396;-73
2021/03/28 04:31:51;;;;;;;9.52;5.15;;;4.20;99.90;;;3.99;87.03;102478.03;4185750;28;20536;-73
2021/03/28 04:34:09;;;;;;;10.00;6.03;;;4.20;99.90;;;3.87;87.59;102468.16;4185259;28;20082;-74
2021/03/28 04:36:14;;;;;;;10.45;5.82;;;4.20;99.90;;;3.93;87.32;102488.75;4168688;28;20029;-74
2021/03/28 04:38:48;;;;;;;;;;;4.20;99.90;;;3.69;88.05;102487.25;4186061;28;20075;-74
2021/03/28 04:41:24;;;;;;;13.80;6.72;;;4.10;99.90;;;3.78;88.68;102486.84;4170324;28;19908;-74
2021/03/28 04:43:36;;;;;;;10.15;5.97;;;4.10;99.90;;;3.71;89.02;102482.81;4185640;28;20029;-73
2021/03/28 04:45:49;;;;;;;11.55;6.43;;;4.10;99.90;;;3.81;88.69;102490.16;4185428;28;20079;-73
2021/03/28 04:48:45;;;;;;;15.48;7.20;;;4.10;99.90;;;3.81;88.08;102479.72;4185534;28;20037;-73
2021/03/28 04:51:21;;;;;;;13.63;7.40;;;4.10;99.90;;;3.83;86.65;102484.88;4138594;28;20052;-73
2021/03/28 04:53:47;;;;;;;16.77;6.47;;;4.10;99.90;;;3.81;87.25;102491.94;4176957;28;20044;-74
2021/03/28 04:56:22;;;;;;;10.77;5.90;;;4.00;99.90;;;3.81;86.51;102500.63;4185335;28;20029;-74
2021/03/28 04:59:10;;;;;;;12.30;6.72;;;4.10;99.90;;;3.80;86.25;102487.63;4185030;28;20059;-74
2021/03/28 05:01:40;;;;;;;10.55;6.50;;;4.00;99.90;;;3.77;85.76;102490.38;4159569;28;20129;-74
2021/03/28 05:04:38;;;;;;;12.23;6.47;;;4.00;99.90;;;3.69;86.30;102482.06;4144046;28;20033;-73
2021/03/28 05:07:15;;;;;;;10.38;6.15;;;4.00;99.90;;;3.82;86.55;102477.97;4162265;28;20041;-73
2021/03/28 05:09:57;;;;;;;13.65;6.90;;;4.00;99.90;;;4.02;87.33;102477.03;4185062;28;20096;-73
2021/03/28 05:12:38;;;;;;;10.85;5.63;;;4.10;99.90;;;3.90;88.33;102488.91;4185156;28;20476;-73
2021/03/28 05:14:59;;;;;;;14.38;6.57;;;4.10;99.90;;;3.73;89.27;102486.22;4184952;28;20029;-74
2021/03/28 05:17:02;;;;;;;15.10;6.70;;;4.10;99.90;;;3.74;89.38;102490.50;4169026;28;20053;-74
2021/03/28 05:19:47;;;;;;;11.27;7.50;;;4.10;99.90;;;3.81;88.66;102486.72;4184782;28;20029;-74
2021/03/28 05:22:15;;;;;;;10.43;6.10;;;4.10;99.90;;;3.77;88.56;102490.38;4170282;28;20033;-73
2021/03/28 05:24:52;;;;;;;11.32;6.13;;;4.10;99.90;;;3.76;88.04;102493.91;4185040;28;20059;-73
2021/03/28 05:27:35;;;;;;;11.20;6.25;;;4.00;99.90;;;3.57;87.08;102506.94;4169906;28;20511;-74
2021/03/28 05:29:57;;;;;;;9.90;6.63;;;4.00;99.90;;;3.51;87.48;102506.34;4184734;28;20048;-74
2021/03/28 05:32:19;;;;;;;10.93;6.05;;;3.90;99.90;;;3.36;86.51;102502.66;4184971;28;20431;-73
2021/03/28 05:35:00;;;;;;;12.88;6.22;;;3.80;99.90;;;3.16;87.75;102505.28;4184470;28;20021;-73
2021/03/28 05:37:36;;;;;;;16.85;6.65;;;3.70;99.90;;;3.20;88.33;102504.22;4184837;28;20036;-74
2021/03/28 05:40:17;;;;;;;8.95;5.57;;;3.60;99.90;;;3.28;88.15;102500.41;4184922;28;20029;-74
2021/03/28 05:42:48;;;;;;;14.23;6.53;;;3.60;99.90;;;3.37;87.37;102504.38;4188082;28;20036;-74
2021/03/28 05:45:20;;;;;;;11.55;6.20;;;3.70;99.90;;;3.39;87.59;102499.91;4170369;28;20032;-74
2021/03/28 05:47:59;;;;;;;12.23;6.20;;;3.60;99.90;;;3.43;88.16;102498.03;4188062;28;20051;-74
2021/03/28 05:50:18;;;;;;;9.90;5.65;;;3.70;99.90;;;3.45;87.96;102498.78;4187817;28;20029;-74
2021/03/28 05:52:50;;;;;;;11.32;6.60;;;3.70;99.90;;;3.54;87.76;102495.78;4188087;28;20021;-74
2021/03/28 05:55:18;;;;;;;8.00;5.18;;;3.80;99.90;;;3.64;88.14;102486.63;4188099;28;20065;-73
2021/03/28 05:58:07;;;;;;;11.50;4.75;;;3.80;99.90;;;3.68;89.30;102494.25;4187966;28;20045;-73
2021/03/28 06:00:33;;;;;;;9.18;5.00;;;3.90;99.90;;;3.73;89.71;102496.66;4187951;28;20017;-73
2021/03/28 06:03:01;;;;;;;9.23;4.43;;;4.00;99.90;;;3.71;91.03;102514.13;4187962;28;20091;-74
2021/03/28 06:05:37;;;;;;;6.50;4.15;;;4.00;99.90;;;3.72;91.23;102519.31;4153289;28;20029;-74
2021/03/28 06:08:25;;;;;;;13.05;5.85;;;4.00;99.90;;;3.74;90.73;102512.25;4186877;28;20032;-74
2021/03/28 06:10:36;;;;;;;8.95;5.15;;;4.10;99.90;;;3.81;90.72;102521.50;4172286;28;20059;-74
2021/03/28 06:13:01;;;;;;;7.28;5.07;;;4.20;99.90;;;3.86;90.54;102511.69;4170153;28;20087;-74
2021/03/28 06:15:40;;;;;;;11.50;4.70;;;4.20;99.90;;;4.17;88.24;102511.13;4187689;28;20104;-74
2021/03/28 06:18:37;;;;;;;9.90;4.22;;;4.30;99.90;;;4.28;89.03;102513.22;4187587;28;20040;-74
2021/03/28 06:21:12;;;;;;;7.60;4.60;;;4.40;99.90;;;4.34;88.72;102505.09;4156610;28;20463;-74
2021/03/28 06:24:03;;;;;;;6.72;4.82;;;4.50;99.90;;;4.36;88.97;102509.31;4187493;28;20040;-74
2021/03/28 06:27:10;;;;;;;8.73;4.38;;;4.60;99.90;;;4.39;89.51;102509.16;4187472;28;20055;-73
2021/03/28 06:29:40;;;;;;;6.18;4.15;;;4.70;99.90;;;4.37;90.09;102516.25;4153742;28;20048;-74
2021/03/28 06:32:05;;;;;;;6.95;4.43;;;4.70;99.90;;;4.49;90.22;102509.59;4187589;28;20395;-74
2021/03/28 06:34:49;;;;;;;7.10;4.80;;;4.80;99.90;;;4.59;89.67;102515.22;4187207;28;20033;-74
2021/03/28 06:37:30;;;;;;;9.35;4.35;;;4.90;99.90;;;4.63;89.89;102514.97;4187452;28;20147;-74
2021/03/28 06:40:02;;;;;;;11.13;4.38;;;5.00;99.90;;;4.65;89.79;102517.53;4187224;28;20040;-73
2021/03/28 06:42:21;;;;;;;8.88;5.68;;;5.00;99.90;;;4.79;89.26;102522.94;4187250;28;20025;-74
2021/03/28 06:45:06;;;;;;;8.40;5.22;;;5.10;99.90;;;4.84;89.31;102526.16;4187265;28;20036;-73
2021/03/28 06:47:58;;;;;;;7.93;4.43;;;5.20;99.90;;;4.78;89.61;102526.47;4169328;28;20040;-73
2021/03/28 06:50:35;;;;;;;7.93;4.43;;;5.30;99.90;;;4.62;90.78;102508.09;4141873;28;20042;-74
2021/03/28 06:53:20;;;;;;;9.55;4.53;;;5.30;99.90;;;4.95;90.90;102534.34;4169585;28;20524;-74
2021/03/28 06:55:38;;;;;;;7.30;4.70;;;5.30;99.90;;;5.03;89.71;102521.72;4187002;28;20045;-73
2021/03/28 06:58:23;;;;;;;7.10;4.57;;;5.40;99.90;;;5.12;88.65;102528.25;4169447;28;20041;-73
2021/03/28 07:01:12;;;;;;;9.52;4.95;;;5.50;99.90;;;5.24;88.67;102525.00;4186796;28;20103;-73
2021/03/28 07:04:04;;;;;;;12.15;5.53;;;5.60;99.90;;;5.23;88.79;102534.63;4186878;28;20017;-73
2021/03/28 07:06:42;;;;;;;10.50;5.20;;;5.70;99.90;;;5.19;90.12;102527.03;4178456;28;20028;-73
2021/03/28 07:09:04;;;;;;;13.98;5.30;;;5.70;99.90;;;5.31;89.67;102529.00;4170070;28;20056;-74
2021/03/28 07:11:29;;;;;;;14.05;5.10;;;5.80;99.90;;;5.35;89.50;102534.00;4186647;28;20029;-74
2021/03/28 07:13:30;;;;;;;11.32;5.35;;;5.80;99.90;;;5.32;90.14;102526.31;4168922;28;20072;-74
2021/03/28 07:15:56;;;;;;;12.10;5.00;;;5.80;99.90;;;5.40;89.76;102525.94;4186814;28;20434;-74
2021/03/28 07:18:08;;;;;;;8.73;4.63;;;5.90;99.90;;;5.45;89.76;102535.22;4168869;28;20032;-73
2021/03/28 07:20:58;;;;;;;11.10;4.88;;;5.90;99.90;;;5.43;89.75;102534.47;4168625;28;20492;-74
2021/03/28 07:23:40;;;;;;;13.75;4.95;;;6.00;99.90;;;5.54;89.27;102539.97;4127946;28;20126;-74
2021/03/28 07:25:52;;;;;;;5.75;4.18;;;6.00;99.90;;;5.51;90.23;102532.28;4168907;28;20488;-74
2021/03/28 07:28:08;;;;;;;11.63;4.63;;;6.00;99.90;;;5.60;90.07;102533.56;4186159;28;20028;-74
2021/03/28 07:30:39;;;;;;;9.93;5.05;;;6.10;99.90;;;5.71;90.50;102535.63;4186643;28;20056;-74
2021/03/28 07:32:55;;;;;;;8.90;4.93;;;6.20;99.90;;;5.76;90.31;102525.78;4186629;28;20496;-73
2021/03/28 07:35:24;;;;;;;11.90;5.07;;;6.30;99.90;;;5.90;90.49;102536.38;4169348;28;20025;-73
2021/03/28 07:38:20;;;;;;;12.07;5.20;;;6.30;99.90;;;6.15;89.82;102536.75;4186461;28;20039;-73
2021/03/28 07:40:45;;;;;;;13.18;5.75;;;6.50;99.90;;;6.22;89.34;102532.84;4128609;28;20049;-73
2021/03/28 07:43:20;;;;;;;18.90;6.22;;;6.60;99.90;;;6.26;89.19;102544.88;4170437;28;20029;-73
2021/03/28 07:45:45;;;;;;;11.75;5.97;;;6.70;99.90;;;6.27;88.89;102540.47;4147039;28;20091;-73
2021/03/28 07:48:20;;;;;;;10.02;5.47;;;6.80;99.90;;;6.30;89.46;102540.31;4186365;28;20033;-73
2021/03/28 07:51:01;;;;;;;11.20;5.60;;;6.80;99.90;;;6.34;89.42;102540.03;4185797;28;20044;-73
2021/03/28 07:53:31;;;;;;;10.73;5.72;;;6.90;99.90;;;6.41;89.95;102538.78;4186271;28;20024;-73
2021/03/28 07:55:33;;;;;;;13.43;6.30;;;6.90;99.90;;;6.55;89.66;102536.22;4185984;28;20040;-74
2021/03/28 07:58:01;;;;;;;15.13;7.30;;;7.00;99.90;;;6.47;89.58;102533.19;4185928;28;20041;-73
2021/03/28 08:00:57;;;;;;;11.73;6.70;;;7.10;99.90;;;6.53;90.35;102530.22;4186061;28;20480;-74
2021/03/28 08:03:10;;;;;;;13.35;6.47;;;7.10;99.90;;;6.74;89.86;102540.44;4170643;28;20046;-74
2021/03/28 08:05:28;;;;;;;13.90;7.50;;;7.20;99.90;;;6.99;88.81;102540.72;4171629;28;20465;-73
2021/03/28 08:08:04;;;;;;;20.20;7.07;;;7.30;99.90;;;7.02;89.32;102543.13;4157601;28;20021;-73
2021/03/28 08:10:20;;;;;;;15.65;7.47;;;7.50;99.90;;;7.04;89.45;102541.28;4174744;28;20075;-73
2021/03/28 08:12:45;;;;;;;13.10;6.13;;;7.60;99.90;;;7.06;89.45;102547.28;4183508;28;20036;-73
2021/03/28 08:15:22;;;;;;;17.60;7.53;;;7.60;99.90;;;7.16;90.16;102543.19;4166700;28;20022;-73
2021/03/28 08:18:12;;;;;;;11.13;6.15;;;7.70;99.90;;;7.33;89.53;102543.03;4166782;28;20029;-73
2021/03/28 08:21:08;;;;;;;15.65;6.90;;;7.90;99.90;;;7.52;89.26;102541.00;4172163;28;20459;-73
2021/03/28 08:23:25;;;;;;;16.15;5.28;;;8.10;99.90;;;7.59;89.57;102530.97;4185406;28;20070;-73
2021/03/28 08:26:28;;;;;;;17.25;6.03;;;8.20;99.90;;;7.66;89.92;102546.28;4168098;28;20024;-73
2021/03/28 08:29:07;;;;;;;16.60;7.25;;;8.30;99.90;;;7.99;89.52;102547.75;4185437;28;20033;-73
2021/03/28 08:31:40;;;;;;;15.20;6.10;;;8.60;99.90;;;7.95;89.83;102549.72;4182121;28;20037;-74
2021/03/28 08:34:14;;;;;;;13.63;5.15;;;8.60;99.90;;;8.13;89.93;102553.00;4162870;28;20030;-73
2021/03/28 08:36:59;;;;;;;15.55;5.28;;;8.80;99.90;;;8.30;90.16;102550.19;4157488;28;20400;-74
2021/03/28 08:39:17;;;;;;;19.25;5.95;;;8.90;99.90;;;8.45;90.14;102549.22;4133572;28;20042;-72
2021/03/28 08:41:43;;;;;;;12.60;5.78;;;9.10;99.90;;;8.61;89.97;102552.53;4167007;28;20048;-72
2021/03/28 08:44:33;;;;;;;11.52;5.18;;;9.20;99.90;;;8.68;90.16;102545.94;4184592;28;20067;-72
2021/03/28 08:49:12;;;;;;;18.08;5.47;;;9.60;99.90;;;9.03;88.62;102542.75;4162633;28;20045;-72
2021/03/28 08:51:43;;;;;;;11.27;4.15;;;9.70;99.90;;;9.20;88.02;102553.03;4148139;28;20036;-72
2021/03/28 08:54:13;;;;;;;13.43;4.40;;;9.90;99.90;;;9.35;87.73;102550.19;4167872;28;20029;-72
2021/03/28 08:56:54;;;;;;;13.25;4.20;;;10.00;99.90;;;9.29;87.92;102558.50;4156012;28;20056;-73
2021/03/28 08:59:00;;;;;;;11.20;4.68;;;10.10;99.90;;;9.34;88.37;102555.56;4167947;28;20032;-73
2021/03/28 09:01:23;;;;;;;12.20;4.18;;;10.20;99.90;;;9.49;87.64;102554.53;4167714;28;20025;-72
2021/03/28 09:03:53;;;;;;;10.70;3.78;;;10.20;99.90;;;9.67;87.42;102552.44;4167874;28;20179;-71
2021/03/28 09:06:07;;;;;;;10.48;3.97;;;10.40;99.90;;;9.81;86.76;102560.22;4166216;28;20056;-72
2021/03/28 09:08:23;;;;;;;10.57;4.35;;;10.60;99.90;;;9.95;86.42;102550.38;4151271;28;20374;-71
2021/03/28 09:10:49;;;;;;;8.70;3.30;;;10.70;99.90;;;9.97;87.62;102545.84;4150675;28;20120;-72
2021/03/28 09:13:26;;;;;;;10.05;3.42;;;10.80;99.90;;;10.02;86.42;102548.16;4167951;28;20474;-70
2021/03/28 09:15:45;;;;;;;13.10;3.67;;;10.90;99.90;;;10.10;86.03;102539.69;4167962;28;20040;-72
2021/03/28 09:18:28;;;;;;;11.82;4.70;;;11.00;99.90;;;10.05;84.29;102540.03;4167725;28;20034;-72
2021/03/28 09:21:01;;;;;;;9.23;2.80;;;11.10;99.90;;;10.02;85.09;102540.25;4151591;28;20109;-72
2021/03/28 09:23:15;;;;;;;11.45;3.42;;;11.00;99.90;;;10.26;84.84;102545.59;4160716;28;20061;-73
2021/03/28 09:25:34;;;;;;;8.88;3.67;;;11.10;99.90;;;10.41;84.38;102552.41;4167874;28;20409;-73
2021/03/28 09:28:03;;;;;;;7.78;3.55;;;11.20;99.90;;;10.48;85.21;102551.03;4151028;28;20056;-73
2021/03/28 09:30:37;;;;;;;8.95;2.88;;;11.40;99.90;;;10.60;85.10;102551.94;4141172;28;20052;-71
2021/03/28 09:33:16;;;;;;;11.05;3.47;;;11.60;99.90;;;10.47;84.96;102559.91;4167498;28;20040;-72
2021/03/28 09:35:35;;;;;;;11.32;4.05;;;11.60;99.90;;;10.71;84.81;102563.38;4152075;28;20053;-72
2021/03/28 09:38:09;;;;;;;8.60;3.00;;;11.70;99.90;;;10.65;83.37;102570.91;4167792;28;20040;-71
2021/03/28 09:40:44;;;;;;;14.53;2.80;;;11.70;99.90;;;10.51;83.32;102567.47;4167788;28;20026;-73
2021/03/28 09:43:25;;;;;;;10.32;2.97;;;11.60;99.90;;;10.77;83.17;102583.22;4167690;28;20280;-75
2021/03/28 09:46:38;;;;;;;9.50;2.22;;;11.70;99.90;;;10.79;81.12;102574.22;4167907;28;20036;-73
2021/03/28 09:49:10;;;;;;;7.05;2.22;;;11.80;99.90;;;10.95;81.37;102561.56;4150429;28;20496;-72
2021/03/28 09:51:40;;;;;;;9.55;2.35;;;12.00;99.90;;;11.05;79.07;102562.56;4167530;28;20059;-72
2021/03/28 09:54:25;;;;;;;10.15;2.83;;;12.00;99.90;;;11.23;77.64;102559.50;4169330;28;20488;-71
2021/03/28 09:56:47;;;;;;;6.87;2.07;;;12.20;99.90;;;11.16;76.71;102567.06;4158075;28;20101;-71
2021/03/28 09:59:19;;;;;;;9.85;2.35;;;12.20;99.90;;;11.19;77.47;102566.81;4162548;28;20772;-71
2021/03/28 10:01:44;;;;;;;9.68;2.28;;;12.30;99.90;;;11.39;78.93;102566.16;4166955;28;20104;-71
2021/03/28 10:04:05;;;;;;;;;;;12.40;99.90;;;11.31;78.61;102572.97;4150472;28;20555;-73
2021/03/28 10:06:16;;;;;;;12.07;3.25;;;12.50;99.90;;;11.48;78.07;102562.81;4156806;28;19908;-72
2021/03/28 10:08:24;;;;;;;7.72;2.05;;;12.60;99.90;;;11.75;76.99;102570.44;4150549;28;20381;-73
2021/03/28 10:10:52;;;;;;;7.72;2.83;;;12.80;99.90;;;11.86;75.51;102570.44;4150402;28;20037;-72
2021/03/28 10:13:12;;;;;;;8.30;2.85;;;12.90;99.90;;;12.06;75.20;102577.66;4167475;28;20120;-72
2021/03/28 10:15:27;;;;;;;10.07;2.47;;;13.10;99.90;;;12.08;75.17;102553.72;4152436;28;20033;-73
2021/03/28 10:17:47;;;;;;;9.55;2.83;;;13.20;99.90;;;12.17;74.11;102571.53;4149813;28;20026;-73
2021/03/28 10:20:10;;;;;;;7.03;2.55;;;13.30;99.90;;;12.23;73.38;102568.38;4150402;28;20033;-73
2021/03/28 10:22:36;;;;;;;7.55;2.42;;;13.40;99.90;;;12.34;73.17;102572.81;4151902;28;20029;-73
2021/03/28 10:25:08;;;;;;;6.97;2.80;;;13.50;99.90;;;12.44;73.23;102574.63;4167719;28;20033;-73
2021/03/28 10:27:36;;;;;;;10.27;2.60;;;13.60;99.90;;;12.40;73.57;102569.66;4168699;28;20396;-73
2021/03/28 10:30:16;;;;;;;9.63;2.72;;;13.70;99.90;;;12.48;75.01;102567.28;4170382;28;20087;-72
2021/03/28 10:32:43;;;;;;;11.95;2.78;;;13.80;99.90;;;12.70;72.81;102564.53;4122041;28;20201;-72